createdAt,value
2019-01-08T00:00:21.172Z,4.17
2019-01-08T00:02:53.015Z,4.60
2019-01-08T00:05:23.376Z,4.50
2019-01-08T00:07:53.666Z,4.90
2019-01-08T00:10:24.011Z,4.80
2019-01-08T00:12:54.824Z,4.20
2019-01-08T00:15:25.104Z,4.30
2019-01-08T00:17:57.429Z,4.50
2019-01-08T00:20:28.013Z,4.40
2019-01-08T00:22:58.408Z,4.80
2019-01-08T00:25:29.162Z,4.20
2019-01-08T00:27:59.571Z,4.90
2019-01-08T00:30:29.842Z,4.50
2019-01-08T00:33:00.106Z,4.40
2019-01-08T00:35:31.144Z,4.63
2019-01-08T00:38:01.855Z,4.50
2019-01-08T00:40:32.199Z,4.77
2019-01-08T00:43:02.576Z,5.43
2019-01-08T00:45:32.898Z,6.07
2019-01-08T00:48:03.185Z,6.20
2019-01-08T00:50:34.656Z,7.07
2019-01-08T00:53:06.495Z,7.83
2019-01-08T00:55:37.168Z,7.43
2019-01-08T00:58:07.597Z,7.73
2019-01-08T01:00:41.112Z,8.90
2019-01-08T01:03:11.481Z,8.60
2019-01-08T01:05:42.319Z,7.40
2019-01-08T01:08:13.985Z,7.20
2019-01-08T01:10:44.257Z,5.13
2019-01-08T01:13:14.532Z,3.77
2019-01-08T01:15:45.243Z,3.50
2019-01-08T01:18:17.311Z,3.20
2019-01-08T01:20:47.678Z,3.20
2019-01-08T01:23:18.037Z,3.73
2019-01-08T01:25:48.435Z,3.73
2019-01-08T01:28:19.566Z,3.30
2019-01-08T01:30:49.961Z,3.27
2019-01-08T01:33:20.241Z,2.93
2019-01-08T01:35:50.535Z,3.00
2019-01-08T01:38:20.958Z,2.63
2019-01-08T01:40:51.775Z,2.57
2019-01-08T01:43:23.358Z,3.47
2019-01-08T01:45:53.632Z,3.33
2019-01-08T01:48:23.986Z,3.07
2019-01-08T01:50:54.778Z,2.87
2019-01-08T01:53:25.116Z,2.90
2019-01-08T01:55:55.396Z,2.53
2019-01-08T01:58:27.061Z,3.50
2019-01-08T02:00:57.892Z,2.90
2019-01-08T02:03:28.222Z,3.17
2019-01-08T02:05:58.933Z,3.20
2019-01-08T02:08:29.213Z,3.00
2019-01-08T02:10:59.973Z,2.90
2019-01-08T02:13:30.243Z,3.53
2019-01-08T02:16:00.540Z,3.03
2019-01-08T02:18:33.047Z,2.80
2019-01-08T02:21:03.873Z,3.80
2019-01-08T02:23:34.211Z,2.90
2019-01-08T02:26:04.537Z,2.53
2019-01-08T02:28:34.838Z,2.90
2019-01-08T02:31:05.687Z,3.03
2019-01-08T02:33:36.023Z,3.20
2019-01-08T02:36:06.967Z,3.73
2019-01-08T02:38:37.251Z,2.73
2019-01-08T02:41:07.885Z,3.13
2019-01-08T02:43:38.271Z,2.87
2019-01-08T02:46:09.355Z,2.87
2019-01-08T02:48:39.723Z,2.90
2019-01-08T02:51:11.363Z,3.40
2019-01-08T02:53:41.657Z,3.17
2019-01-08T02:56:12.030Z,3.23
2019-01-08T02:58:42.601Z,3.50
2019-01-08T03:01:13.495Z,3.70
2019-01-08T03:03:43.778Z,3.50
2019-01-08T03:06:15.070Z,3.27
2019-01-08T03:08:45.374Z,3.30
2019-01-08T03:11:15.641Z,3.73
2019-01-08T03:13:46.022Z,3.23
2019-01-08T03:16:16.885Z,2.83
2019-01-08T03:18:48.513Z,3.80
2019-01-08T03:21:22.208Z,3.77
2019-01-08T03:23:52.510Z,3.50
2019-01-08T03:26:22.796Z,3.63
2019-01-08T03:28:54.231Z,3.80
2019-01-08T03:31:24.941Z,3.50
2019-01-08T03:33:55.334Z,4.40
2019-01-08T03:36:26.254Z,4.63
2019-01-08T03:38:56.539Z,4.43
2019-01-08T03:41:27.440Z,4.30
2019-01-08T03:43:57.745Z,4.37
2019-01-08T03:46:28.524Z,3.90
2019-01-08T03:48:58.784Z,4.20
2019-01-08T03:51:30.567Z,4.30
2019-01-08T03:54:00.846Z,4.20
2019-01-08T03:56:31.157Z,3.80
2019-01-08T03:59:01.492Z,3.83
2019-01-08T04:01:32.683Z,3.77
2019-01-08T04:04:02.982Z,4.23
2019-01-08T04:06:34.544Z,4.47
2019-01-08T04:09:06.545Z,3.50
2019-01-08T04:11:37.324Z,3.47
2019-01-08T04:14:07.603Z,4.10
2019-01-08T04:16:37.916Z,3.53
2019-01-08T04:19:08.916Z,3.77
2019-01-08T04:21:40.112Z,4.50
2019-01-08T04:24:10.378Z,4.13
2019-01-08T04:26:40.636Z,4.10
2019-01-08T04:29:11.104Z,3.93
2019-01-08T04:31:41.841Z,4.00
2019-01-08T04:34:12.117Z,4.60
2019-01-08T04:36:43.317Z,4.30
2019-01-08T04:39:13.598Z,3.63
2019-01-08T04:41:43.862Z,4.37
2019-01-08T04:44:14.242Z,4.20
2019-01-08T04:46:45.080Z,4.17
2019-01-08T04:49:15.351Z,4.93
2019-01-08T04:51:46.599Z,3.50
2019-01-08T04:54:16.878Z,4.07
2019-01-08T04:56:47.165Z,3.57
2019-01-08T04:59:17.781Z,4.23
2019-01-08T05:01:48.501Z,4.07
2019-01-08T05:04:18.823Z,3.90
2019-01-08T05:06:49.338Z,4.10
2019-01-08T05:09:21.835Z,4.27
2019-01-08T05:11:52.624Z,3.50
2019-01-08T05:14:22.941Z,3.57
2019-01-08T05:16:53.230Z,4.53
2019-01-08T05:19:24.513Z,3.27
2019-01-08T05:21:55.307Z,3.80
2019-01-08T05:24:26.984Z,3.43
2019-01-08T05:26:57.268Z,3.40
2019-01-08T05:29:27.530Z,3.73
2019-01-08T05:31:57.810Z,3.53
2019-01-08T05:34:28.723Z,3.20
2019-01-08T05:36:59.141Z,3.90
2019-01-08T05:39:29.408Z,3.23
2019-01-08T05:41:59.688Z,3.43
2019-01-08T05:44:30.465Z,3.50
2019-01-08T05:47:00.755Z,3.30
2019-01-08T05:49:31.060Z,4.33
2019-01-08T05:52:01.367Z,3.57
2019-01-08T05:54:34.537Z,3.83
2019-01-08T05:57:04.818Z,3.70
2019-01-08T05:59:35.144Z,4.00
2019-01-08T06:02:05.539Z,3.97
2019-01-08T06:04:36.396Z,4.17
2019-01-08T06:07:06.724Z,3.77
2019-01-08T06:09:37.045Z,4.53
2019-01-08T06:12:07.450Z,3.70
2019-01-08T06:14:39.399Z,3.90
2019-01-08T06:17:09.702Z,4.13
2019-01-08T06:19:43.983Z,3.60
2019-01-08T06:22:14.289Z,4.47
2019-01-08T06:24:45.680Z,3.80
2019-01-08T06:27:15.967Z,3.87
2019-01-08T06:29:47.439Z,3.40
2019-01-08T06:32:17.722Z,4.20
2019-01-08T06:34:47.988Z,4.00
2019-01-08T06:37:18.956Z,4.27
2019-01-08T06:39:49.740Z,3.80
2019-01-08T06:42:20.145Z,4.20
2019-01-08T06:44:50.847Z,3.90
2019-01-08T06:47:22.179Z,4.00
2019-01-08T06:49:52.516Z,3.10
2019-01-08T06:52:22.844Z,3.90
2019-01-08T06:54:53.204Z,4.13
2019-01-08T06:57:24.108Z,3.83
2019-01-08T06:59:54.617Z,4.13
2019-01-08T07:02:25.955Z,3.90
2019-01-08T07:04:56.254Z,4.13
2019-01-08T07:07:27.096Z,3.90
2019-01-08T07:09:57.773Z,4.43
2019-01-08T07:12:28.200Z,4.23
2019-01-08T07:14:58.610Z,4.87
2019-01-08T07:17:30.304Z,4.20
2019-01-08T07:20:01.284Z,3.93
2019-01-08T07:22:32.475Z,4.07
2019-01-08T07:25:02.800Z,4.30
2019-01-08T07:27:33.523Z,4.33
2019-01-08T07:30:04.498Z,4.50
2019-01-08T07:32:36.115Z,4.30
2019-01-08T07:35:06.421Z,6.13
2019-01-08T07:37:37.311Z,4.20
2019-01-08T07:40:07.955Z,4.90
2019-01-08T07:42:38.257Z,4.83
2019-01-08T07:45:08.620Z,4.93
2019-01-08T07:47:41.452Z,6.07
2019-01-08T07:50:11.870Z,4.80
2019-01-08T07:52:42.288Z,5.17
2019-01-08T07:55:12.654Z,4.33
2019-01-08T07:57:43.980Z,3.93
2019-01-08T08:00:14.550Z,3.97
2019-01-08T08:02:45.780Z,4.93
2019-01-08T08:05:16.159Z,4.10
2019-01-08T08:07:47.029Z,5.10
2019-01-08T08:10:17.310Z,4.70
2019-01-08T08:12:48.043Z,4.10
2019-01-08T08:15:18.330Z,4.13
2019-01-08T08:17:50.581Z,3.77
2019-01-08T08:20:21.456Z,4.03
2019-01-08T08:22:51.756Z,4.10
2019-01-08T08:25:22.032Z,4.07
2019-01-08T08:27:52.917Z,3.90
2019-01-08T08:30:23.290Z,4.27
2019-01-08T08:32:53.564Z,4.23
2019-01-08T08:35:25.222Z,4.10
2019-01-08T08:37:55.933Z,5.20
2019-01-08T08:40:26.216Z,31.03
2019-01-08T08:42:56.509Z,55.97
2019-01-08T08:45:26.893Z,33.50
2019-01-08T08:47:57.672Z,4.17
2019-01-08T08:50:29.349Z,3.60
2019-01-08T08:52:59.940Z,3.03
2019-01-08T08:55:31.253Z,4.17
2019-01-08T08:58:02.000Z,3.97
2019-01-08T09:00:32.340Z,3.63
2019-01-08T09:03:04.372Z,3.70
2019-01-08T09:05:40.122Z,3.77
2019-01-08T09:08:14.744Z,3.63
2019-01-08T09:10:46.225Z,3.63
2019-01-08T09:13:16.537Z,3.70
2019-01-08T09:15:47.302Z,5.00
2019-01-08T09:18:18.616Z,3.73
2019-01-08T09:20:51.871Z,3.70
2019-01-08T09:23:22.446Z,3.90
2019-01-08T09:25:53.034Z,3.47
2019-01-08T09:28:24.220Z,3.90
2019-01-08T09:30:55.671Z,3.40
2019-01-08T09:33:26.393Z,3.03
2019-01-08T09:35:58.820Z,3.40
2019-01-08T09:38:29.250Z,3.40
2019-01-08T09:41:00.166Z,2.90
2019-01-08T09:43:31.216Z,3.03
2019-01-08T09:46:02.235Z,3.27
2019-01-08T09:48:32.887Z,2.73
2019-01-08T09:51:03.704Z,3.07
2019-01-08T09:53:35.433Z,2.87
2019-01-08T09:56:06.268Z,3.17
2019-01-08T09:58:36.598Z,3.10
2019-01-08T10:01:07.031Z,3.47
2019-01-08T10:03:37.329Z,3.30
2019-01-08T10:06:07.632Z,4.00
2019-01-08T10:08:39.030Z,3.60
2019-01-08T10:11:09.368Z,3.40
2019-01-08T10:13:39.639Z,3.40
2019-01-08T10:16:10.036Z,3.60
2019-01-08T10:18:42.762Z,3.97
2019-01-08T10:21:14.587Z,4.20
2019-01-08T10:23:44.840Z,4.10
2019-01-08T10:26:15.318Z,3.83
2019-01-08T10:28:46.463Z,4.03
2019-01-08T10:31:16.782Z,4.20
2019-01-08T10:33:47.080Z,4.00
2019-01-08T10:36:17.504Z,3.83
2019-01-08T10:38:47.915Z,3.93
2019-01-08T10:41:18.686Z,3.80
2019-01-08T10:43:49.122Z,4.30
2019-01-08T10:46:19.566Z,12.80
2019-01-08T10:48:49.865Z,14.47
2019-01-08T10:51:20.199Z,6.87
2019-01-08T10:53:50.545Z,3.73
2019-01-08T10:56:21.310Z,4.10
2019-01-08T10:58:51.622Z,3.43
2019-01-08T11:01:21.947Z,3.60
2019-01-08T11:03:52.234Z,4.27
2019-01-08T11:06:22.512Z,3.23
2019-01-08T11:08:53.296Z,3.80
2019-01-08T11:11:23.582Z,3.33
2019-01-08T11:13:54.360Z,3.50
2019-01-08T11:16:24.705Z,2.90
2019-01-08T11:18:55.526Z,3.30
2019-01-08T11:21:26.934Z,3.43
2019-01-08T11:23:58.795Z,4.17
2019-01-08T11:26:29.147Z,3.90
2019-01-08T11:29:01.252Z,3.60
2019-01-08T11:31:31.730Z,3.30
2019-01-08T11:34:05.050Z,3.57
2019-01-08T11:36:35.355Z,3.57
2019-01-08T11:39:07.298Z,3.87
2019-01-08T11:41:38.189Z,3.70
2019-01-08T11:44:10.403Z,3.60
2019-01-08T11:46:40.729Z,4.73
2019-01-08T11:49:12.036Z,3.70
2019-01-08T11:51:42.902Z,3.80
2019-01-08T11:54:13.622Z,3.90
2019-01-08T11:56:43.958Z,3.73
2019-01-08T11:59:14.771Z,4.40
2019-01-08T12:01:45.933Z,3.63
2019-01-08T12:04:17.733Z,3.73
2019-01-08T12:06:48.045Z,3.80
2019-01-08T12:09:19.406Z,3.70
2019-01-08T12:11:49.728Z,3.57
2019-01-08T12:14:20.130Z,3.77
2019-01-08T12:16:50.429Z,3.67
2019-01-08T12:19:22.572Z,3.57
2019-01-08T12:21:54.559Z,4.20
2019-01-08T12:24:24.884Z,3.60
2019-01-08T12:26:55.581Z,3.53
2019-01-08T12:29:26.564Z,3.57
2019-01-08T12:32:05.608Z,3.63
2019-01-08T12:34:29.976Z,3.90
2019-01-08T12:37:00.253Z,3.70
2019-01-08T12:39:31.063Z,2.90
2019-01-08T12:42:01.551Z,2.90
2019-01-08T12:44:32.110Z,3.20
2019-01-08T12:47:02.405Z,3.00
2019-01-08T12:49:34.530Z,3.40
2019-01-08T12:52:05.004Z,3.40
2019-01-08T12:54:35.501Z,2.97
2019-01-08T12:57:05.776Z,4.07
2019-01-08T12:59:36.665Z,3.10
2019-01-08T13:02:14.646Z,3.60
2019-01-08T13:04:39.663Z,3.63
2019-01-08T13:07:09.925Z,3.47
2019-01-08T13:09:40.830Z,3.40
2019-01-08T13:12:11.137Z,3.57
2019-01-08T13:14:41.442Z,3.50
2019-01-08T13:17:11.937Z,4.27
2019-01-08T13:19:42.814Z,3.77
2019-01-08T13:22:16.214Z,3.77
2019-01-08T13:24:46.511Z,3.97
2019-01-08T13:27:16.902Z,3.60
2019-01-08T13:29:47.861Z,4.20
2019-01-08T13:32:23.120Z,4.53
2019-01-08T13:34:50.292Z,3.87
2019-01-08T13:37:20.563Z,3.60
2019-01-08T13:39:51.071Z,3.77
2019-01-08T13:42:21.946Z,3.73
2019-01-08T13:44:52.222Z,3.67
2019-01-08T13:47:22.518Z,3.63
2019-01-08T13:49:52.837Z,3.73
2019-01-08T13:52:23.110Z,4.20
2019-01-08T13:54:53.926Z,4.03
2019-01-08T13:57:24.947Z,4.10
2019-01-08T13:59:55.474Z,3.83
2019-01-08T14:02:31.811Z,3.53
2019-01-08T14:04:57.814Z,4.60
2019-01-08T14:07:28.122Z,3.17
2019-01-08T14:09:59.417Z,3.10
2019-01-08T14:12:29.729Z,2.57
2019-01-08T14:15:00.178Z,2.40
2019-01-08T14:17:30.484Z,2.73
2019-01-08T14:20:01.322Z,2.40
2019-01-08T14:22:33.038Z,3.20
2019-01-08T14:25:04.676Z,2.37
2019-01-08T14:27:36.073Z,2.50
2019-01-08T14:30:08.087Z,2.73
2019-01-08T14:32:40.842Z,2.70
2019-01-08T14:35:10.735Z,3.00
2019-01-08T14:37:41.041Z,3.30
2019-01-08T14:40:11.979Z,3.07
2019-01-08T14:42:42.531Z,3.27
2019-01-08T14:45:12.891Z,3.50
2019-01-08T14:47:43.142Z,2.97
2019-01-08T14:50:13.971Z,2.87
2019-01-08T14:52:44.249Z,3.00
2019-01-08T14:55:14.533Z,3.60
2019-01-08T14:57:45.820Z,3.00
2019-01-08T15:00:16.719Z,4.77
2019-01-08T15:02:49.752Z,3.47
2019-01-08T15:05:20.566Z,4.00
2019-01-08T15:07:51.101Z,4.57
2019-01-08T15:10:21.848Z,3.80
2019-01-08T15:12:53.393Z,4.10
2019-01-08T15:15:23.667Z,4.57
2019-01-08T15:17:54.067Z,4.23
2019-01-08T15:20:24.880Z,3.47
2019-01-08T15:22:55.548Z,4.27
2019-01-08T15:25:25.842Z,3.73
2019-01-08T15:27:56.783Z,3.97
2019-01-08T15:30:27.633Z,3.47
2019-01-08T15:32:58.639Z,3.40
2019-01-08T15:35:29.030Z,2.80
2019-01-08T15:37:59.413Z,2.40
2019-01-08T15:40:30.277Z,2.70
2019-01-08T15:43:00.649Z,3.00
2019-01-08T15:45:31.071Z,3.00
2019-01-08T15:48:01.362Z,2.73
2019-01-08T15:50:32.211Z,3.50
2019-01-08T15:53:02.501Z,2.73
2019-01-08T15:55:32.918Z,3.23
2019-01-08T15:58:03.202Z,3.70
2019-01-08T16:00:34.640Z,3.60
2019-01-08T16:03:07.587Z,3.50
2019-01-08T16:05:37.301Z,3.70
2019-01-08T16:08:07.732Z,3.47
2019-01-08T16:10:38.686Z,4.60
2019-01-08T16:13:08.992Z,3.50
2019-01-08T16:15:40.791Z,3.73
2019-01-08T16:18:11.079Z,3.40
2019-01-08T16:20:42.043Z,3.77
2019-01-08T16:23:13.650Z,3.80
2019-01-08T16:25:44.003Z,3.77
2019-01-08T16:28:14.327Z,3.70
2019-01-08T16:30:46.823Z,4.23
2019-01-08T16:33:17.161Z,3.30
2019-01-08T16:35:47.495Z,3.70
2019-01-08T16:38:18.295Z,4.10
2019-01-08T16:40:49.168Z,3.93
2019-01-08T16:43:19.459Z,3.63
2019-01-08T16:45:50.419Z,3.80
2019-01-08T16:48:20.748Z,3.80
2019-01-08T16:50:51.982Z,3.80
2019-01-08T16:53:22.298Z,3.60
2019-01-08T16:55:52.605Z,3.83
2019-01-08T16:58:22.997Z,3.97
2019-01-08T17:00:55.063Z,4.03
2019-01-08T17:03:26.788Z,4.37
2019-01-08T17:05:57.235Z,3.70
2019-01-08T17:08:27.601Z,3.43
2019-01-08T17:10:58.480Z,3.43
2019-01-08T17:13:28.818Z,3.50
2019-01-08T17:16:00.057Z,3.20
2019-01-08T17:18:30.390Z,3.53
2019-01-08T17:21:01.487Z,4.40
2019-01-08T17:23:32.396Z,3.70
2019-01-08T17:26:02.802Z,3.63
2019-01-08T17:28:33.217Z,3.73
2019-01-08T17:31:05.386Z,3.93
2019-01-08T17:33:35.702Z,4.20
2019-01-08T17:36:05.981Z,3.20
2019-01-08T17:38:36.263Z,3.77
2019-01-08T17:41:06.262Z,3.30
2019-01-08T17:43:36.554Z,3.50
2019-01-08T17:46:06.846Z,3.57
2019-01-08T17:48:39.068Z,3.80
2019-01-08T17:51:09.855Z,3.23
2019-01-08T17:53:40.279Z,3.60
2019-01-08T17:56:10.928Z,4.00
2019-01-08T17:58:43.651Z,3.53
2019-01-08T18:01:34.949Z,3.63
2019-01-08T18:04:07.195Z,4.70
2019-01-08T18:06:37.528Z,3.47
2019-01-08T18:09:08.292Z,3.30
2019-01-08T18:11:39.162Z,4.27
2019-01-08T18:14:09.515Z,4.43
2019-01-08T18:16:40.058Z,3.80
2019-01-08T18:19:11.936Z,3.20
2019-01-08T18:21:42.750Z,3.37
2019-01-08T18:24:13.171Z,2.80
2019-01-08T18:26:43.683Z,3.47
2019-01-08T18:29:14.212Z,3.40
2019-01-08T18:31:45.059Z,3.20
2019-01-08T18:34:16.524Z,3.50
2019-01-08T18:36:47.807Z,3.17
2019-01-08T18:39:18.090Z,3.50
2019-01-08T18:41:49.395Z,3.50
2019-01-08T18:44:20.363Z,3.40
2019-01-08T18:46:50.635Z,3.37
2019-01-08T18:49:22.048Z,3.50
2019-01-08T18:51:52.366Z,3.30
2019-01-08T18:54:22.880Z,3.33
2019-01-08T18:56:53.754Z,3.50
2019-01-08T18:59:24.817Z,3.20
2019-01-08T19:01:56.047Z,3.43
2019-01-08T19:04:27.641Z,3.53
2019-01-08T19:06:57.948Z,3.87
2019-01-08T19:09:34.008Z,3.27
2019-01-08T19:12:05.399Z,3.67
2019-01-08T19:14:45.146Z,2.90
2019-01-08T19:17:15.439Z,3.70
2019-01-08T19:19:46.439Z,4.00
2019-01-08T19:22:17.190Z,3.50
2019-01-08T19:24:50.826Z,3.57
2019-01-08T19:27:22.332Z,3.93
2019-01-08T19:29:52.797Z,3.50
2019-01-08T19:32:23.598Z,3.80
2019-01-08T19:34:54.947Z,3.23
2019-01-08T19:37:25.307Z,4.30
2019-01-08T19:39:55.718Z,3.90
2019-01-08T19:42:26.558Z,3.70
2019-01-08T19:44:56.869Z,3.67
2019-01-08T19:47:28.508Z,3.23
2019-01-08T19:49:58.765Z,4.33
2019-01-08T19:52:30.399Z,3.60
2019-01-08T19:55:00.691Z,3.63
2019-01-08T19:57:31.101Z,3.40
2019-01-08T20:00:01.398Z,3.73
2019-01-08T20:02:33.161Z,3.60
2019-01-08T20:05:03.463Z,3.67
2019-01-08T20:07:35.062Z,3.53
2019-01-08T20:10:07.177Z,3.50
2019-01-08T20:12:37.932Z,4.60
2019-01-08T20:15:10.077Z,3.37
2019-01-08T20:17:40.559Z,3.10
2019-01-08T20:20:11.254Z,4.03
2019-01-08T20:22:42.615Z,4.17
2019-01-08T20:25:14.288Z,3.83
2019-01-08T20:27:44.630Z,3.57
2019-01-08T20:30:15.039Z,3.20
2019-01-08T20:32:46.114Z,3.50
2019-01-08T20:35:16.442Z,4.50
2019-01-08T20:37:47.790Z,3.80
2019-01-08T20:40:18.175Z,3.37
2019-01-08T20:42:49.100Z,3.83
2019-01-08T20:45:19.391Z,3.73
2019-01-08T20:47:49.799Z,3.70
2019-01-08T20:50:20.261Z,4.03
2019-01-08T20:52:53.071Z,3.30
2019-01-08T20:55:23.343Z,3.63
2019-01-08T20:57:53.633Z,3.50
2019-01-08T21:00:24.061Z,3.80
2019-01-08T21:02:54.781Z,3.53
2019-01-08T21:05:25.498Z,4.43
2019-01-08T21:07:56.176Z,3.23
2019-01-08T21:10:26.563Z,3.47
2019-01-08T21:12:57.297Z,4.10
2019-01-08T21:15:28.063Z,3.23
2019-01-08T21:17:59.401Z,3.40
2019-01-08T21:20:29.806Z,4.03
2019-01-08T21:23:00.219Z,3.13
2019-01-08T21:25:32.482Z,3.23
2019-01-08T21:28:02.940Z,3.90
2019-01-08T21:30:33.383Z,3.50
2019-01-08T21:33:03.637Z,3.53
2019-01-08T21:35:33.976Z,3.10
2019-01-08T21:38:04.747Z,4.17
2019-01-08T21:40:35.617Z,3.30
2019-01-08T21:43:06.355Z,3.30
2019-01-08T21:45:36.699Z,3.40
2019-01-08T21:48:07.628Z,3.37
2019-01-08T21:50:38.123Z,3.93
2019-01-08T21:53:08.724Z,3.97
2019-01-08T21:55:40.439Z,3.43
2019-01-08T21:58:11.281Z,2.93
2019-01-08T22:00:41.758Z,3.30
2019-01-08T22:03:12.139Z,3.20
2019-01-08T22:05:42.433Z,3.40
2019-01-08T22:08:13.011Z,3.30
2019-01-08T22:10:43.827Z,2.70
2019-01-08T22:13:14.471Z,3.10
2019-01-08T22:15:44.861Z,3.10
2019-01-08T22:18:15.234Z,2.70
2019-01-08T22:20:46.024Z,3.20
2019-01-08T22:23:17.180Z,2.47
2019-01-08T22:25:50.337Z,2.80
2019-01-08T22:28:23.996Z,2.93
2019-01-08T22:30:55.043Z,3.13
2019-01-08T22:33:25.363Z,3.33
2019-01-08T22:35:55.737Z,2.90
2019-01-08T22:38:26.151Z,2.90
2019-01-08T22:40:57.094Z,3.53
2019-01-08T22:43:29.027Z,3.00
2019-01-08T22:45:59.418Z,2.90
2019-01-08T22:48:29.985Z,3.53
2019-01-08T22:51:00.779Z,2.90
2019-01-08T22:53:31.243Z,2.90
2019-01-08T22:56:02.054Z,2.97
2019-01-08T22:58:33.640Z,3.00
2019-01-08T23:01:17.713Z,3.33
2019-01-08T23:03:48.035Z,3.10
2019-01-08T23:06:18.339Z,3.83
2019-01-08T23:08:48.750Z,3.20
2019-01-08T23:11:21.660Z,3.03
2019-01-08T23:13:52.308Z,3.50
2019-01-08T23:16:22.634Z,3.27
2019-01-08T23:18:53.009Z,2.83
2019-01-08T23:21:23.986Z,2.60
2019-01-08T23:23:54.356Z,3.00
2019-01-08T23:26:27.886Z,2.60
2019-01-08T23:28:58.338Z,2.60
2019-01-08T23:31:30.507Z,3.10
2019-01-08T23:34:00.810Z,2.37
2019-01-08T23:36:31.163Z,2.67
2019-01-08T23:39:01.460Z,2.90
2019-01-08T23:41:32.732Z,2.20
2019-01-08T23:44:03.612Z,2.30
2019-01-08T23:46:33.953Z,2.50
2019-01-08T23:49:05.203Z,2.17
2019-01-08T23:51:35.472Z,2.33
2019-01-08T23:54:06.346Z,2.57
2019-01-08T23:56:36.634Z,2.57
2019-01-08T23:59:06.934Z,2.77
